createdAt,value
2022-09-12T00:01:07.374Z,5.05
2022-09-12T00:03:35.684Z,9.05
2022-09-12T00:06:10.200Z,7.25
2022-09-12T00:08:38.549Z,7.35
2022-09-12T00:11:11.610Z,6.07
2022-09-12T00:13:41.789Z,7.78
2022-09-12T00:16:16.697Z,6.95
2022-09-12T00:18:46.871Z,6.05
2022-09-12T00:21:17.280Z,6.32
2022-09-12T00:23:45.249Z,4.22
2022-09-12T00:26:14.680Z,4.88
2022-09-12T00:28:42.948Z,5.03
2022-09-12T00:31:12.679Z,5.82
2022-09-12T00:33:40.962Z,6.43
2022-09-12T00:36:11.016Z,8.70
2022-09-12T00:38:42.067Z,7.38
2022-09-12T00:41:16.345Z,7.32
2022-09-12T00:43:48.153Z,7.18
2022-09-12T00:46:29.332Z,8.30
2022-09-12T00:49:01.012Z,5.68
2022-09-12T00:51:31.532Z,6.63
2022-09-12T00:54:03.394Z,9.50
2022-09-12T00:56:31.158Z,7.35
2022-09-12T00:59:03.872Z,7.22
2022-09-12T01:01:37.494Z,7.18
2022-09-12T01:04:05.511Z,7.57
2022-09-12T01:06:38.001Z,6.65
2022-09-12T01:11:38.879Z,7.13
2022-09-12T01:14:07.441Z,6.45
2022-09-12T01:16:36.727Z,8.80
2022-09-12T01:19:21.382Z,12.70
2022-09-12T01:21:59.724Z,6.05
2022-09-12T01:24:44.586Z,13.02
2022-09-12T01:27:37.989Z,6.55
2022-09-12T01:30:22.370Z,8.18
2022-09-12T01:33:01.708Z,6.85
2022-09-12T01:35:37.891Z,9.48
2022-09-12T01:38:15.355Z,9.30
2022-09-12T01:40:53.176Z,7.90
2022-09-12T01:43:28.446Z,6.90
2022-09-12T01:46:04.311Z,8.48
2022-09-12T01:48:37.061Z,6.55
2022-09-12T01:51:11.353Z,6.82
2022-09-12T01:53:44.100Z,9.25
2022-09-12T01:56:17.253Z,6.80
2022-09-12T01:58:49.578Z,8.05
2022-09-12T02:01:23.459Z,6.47
2022-09-12T02:03:56.890Z,7.90
2022-09-12T02:06:28.452Z,7.95
2022-09-12T02:09:01.611Z,5.50
2022-09-12T02:11:32.996Z,8.80
2022-09-12T02:14:07.256Z,7.95
2022-09-12T02:16:41.355Z,7.50
2022-09-12T02:19:13.672Z,8.63
2022-09-12T02:21:46.482Z,8.68
2022-09-12T02:24:21.223Z,7.82
2022-09-12T02:26:52.066Z,9.50
2022-09-12T02:29:21.039Z,5.95
2022-09-12T02:31:56.322Z,8.15
2022-09-12T02:34:39.849Z,7.07
2022-09-12T02:37:14.167Z,8.35
2022-09-12T02:39:45.135Z,7.60
2022-09-12T02:42:13.583Z,8.57
2022-09-12T02:44:42.207Z,6.95
2022-09-12T02:47:16.624Z,6.97
2022-09-12T02:49:44.210Z,8.38
2022-09-12T02:52:12.188Z,11.90
2022-09-12T02:54:40.518Z,9.38
2022-09-12T02:57:21.878Z,8.88
2022-09-12T02:59:52.273Z,7.22
2022-09-12T03:02:33.320Z,9.60
2022-09-12T03:05:27.008Z,8.15
2022-09-12T03:08:15.663Z,11.15
2022-09-12T03:11:02.968Z,10.27
2022-09-12T03:13:40.274Z,8.25
2022-09-12T03:16:18.262Z,9.68
2022-09-12T03:18:54.709Z,10.82
2022-09-12T03:21:30.025Z,7.53
2022-09-12T03:24:10.635Z,13.85
2022-09-12T03:26:43.851Z,11.18
2022-09-12T03:29:14.093Z,12.70
2022-09-12T03:31:51.256Z,8.10
2022-09-12T03:34:21.186Z,8.63
2022-09-12T03:36:49.441Z,7.55
2022-09-12T03:39:18.038Z,6.07
2022-09-12T03:41:45.842Z,5.88
2022-09-12T03:44:15.138Z,6.45
2022-09-12T03:46:42.830Z,7.13
2022-09-12T03:49:10.765Z,5.88
2022-09-12T03:51:40.375Z,5.25
2022-09-12T03:54:10.072Z,5.72
2022-09-12T03:56:38.030Z,6.38
2022-09-12T03:59:06.701Z,7.25
2022-09-12T04:01:34.761Z,7.53
2022-09-12T04:04:02.859Z,6.90
2022-09-12T04:06:31.182Z,6.30
2022-09-12T04:09:00.305Z,6.88
2022-09-12T04:11:27.928Z,6.78
2022-09-12T04:13:55.556Z,8.75
2022-09-12T04:16:24.340Z,6.53
2022-09-12T04:18:55.413Z,7.53
2022-09-12T04:21:23.098Z,6.90
2022-09-12T04:23:51.372Z,5.38
2022-09-12T04:26:21.812Z,6.88
2022-09-12T04:28:53.997Z,6.18
2022-09-12T04:31:22.724Z,7.55
2022-09-12T04:33:56.292Z,6.95
2022-09-12T04:36:24.617Z,6.65
2022-09-12T04:38:53.076Z,7.97
2022-09-12T04:41:23.727Z,9.73
2022-09-12T04:43:54.073Z,6.18
2022-09-12T04:46:25.711Z,8.57
2022-09-12T04:48:56.872Z,8.47
2022-09-12T04:51:27.763Z,6.57
2022-09-12T04:53:57.723Z,5.95
2022-09-12T04:56:27.994Z,7.03
2022-09-12T04:58:58.471Z,5.25
2022-09-12T05:01:30.919Z,7.50
2022-09-12T05:06:31.079Z,7.28
2022-09-12T05:09:00.638Z,6.70
2022-09-12T05:11:53.057Z,5.60
2022-09-12T05:14:19.393Z,6.07
2022-09-12T05:16:50.075Z,7.70
2022-09-12T05:19:20.413Z,7.60
2022-09-12T05:21:48.213Z,5.93
2022-09-12T05:24:16.148Z,10.18
2022-09-12T05:26:45.532Z,5.50
2022-09-12T05:29:15.588Z,6.47
2022-09-12T05:31:43.303Z,6.40
2022-09-12T05:34:11.296Z,7.85
2022-09-12T05:36:39.266Z,8.35
2022-09-12T05:39:09.655Z,7.13
2022-09-12T05:41:37.492Z,6.68
2022-09-12T05:44:08.155Z,7.50
2022-09-12T05:46:38.713Z,11.52
2022-09-12T05:49:08.080Z,7.00
2022-09-12T05:51:37.988Z,8.05
2022-09-12T05:54:07.619Z,6.72
2022-09-12T05:56:39.339Z,9.27
2022-09-12T05:59:13.128Z,10.13
2022-09-12T06:01:41.267Z,12.38
2022-09-12T06:04:09.479Z,6.88
2022-09-12T06:06:39.488Z,7.60
2022-09-12T06:09:07.458Z,9.07
2022-09-12T06:11:37.940Z,8.70
2022-09-12T06:14:06.885Z,11.15
2022-09-12T06:16:37.196Z,6.85
2022-09-12T06:19:07.740Z,8.02
2022-09-12T06:21:37.881Z,10.95
2022-09-12T06:24:05.761Z,8.73
2022-09-12T06:26:33.641Z,9.90
2022-09-12T06:29:03.048Z,9.15
2022-09-12T06:31:33.169Z,14.13
2022-09-12T06:34:04.671Z,9.40
2022-09-12T06:36:34.745Z,7.85
2022-09-12T06:39:06.141Z,10.68
2022-09-12T06:41:34.732Z,9.70
2022-09-12T06:44:03.518Z,9.27
2022-09-12T06:46:34.598Z,10.25
2022-09-12T06:49:03.805Z,8.40
2022-09-12T06:51:31.960Z,7.82
2022-09-12T06:53:59.833Z,8.18
2022-09-12T06:56:28.631Z,8.23
2022-09-12T06:58:57.945Z,9.57
2022-09-12T07:01:28.524Z,9.10
2022-09-12T07:03:58.816Z,9.27
2022-09-12T07:06:31.883Z,8.68
2022-09-12T07:09:00.918Z,9.82
2022-09-12T07:11:31.813Z,10.68
2022-09-12T07:14:01.718Z,8.45
2022-09-12T07:16:30.356Z,9.85
2022-09-12T07:19:00.031Z,12.15
2022-09-12T07:21:30.469Z,12.30
2022-09-12T07:23:58.853Z,9.20
2022-09-12T07:26:27.647Z,7.70
2022-09-12T07:29:12.724Z,9.13
2022-09-12T07:31:41.004Z,8.57
2022-09-12T07:34:11.641Z,11.15
2022-09-12T07:36:40.917Z,8.85
2022-09-12T07:39:10.722Z,9.10
2022-09-12T07:41:38.458Z,11.57
2022-09-12T07:44:08.099Z,7.93
2022-09-12T07:46:37.275Z,9.18
2022-09-12T07:49:05.031Z,8.43
2022-09-12T07:51:41.158Z,8.32
2022-09-12T07:54:10.236Z,10.93
2022-09-12T07:56:44.059Z,9.80
2022-09-12T07:59:11.987Z,8.63
2022-09-12T08:01:43.865Z,10.93
2022-09-12T08:04:14.809Z,12.38
2022-09-12T08:06:43.959Z,11.52
2022-09-12T08:09:12.952Z,12.75
2022-09-12T08:11:40.648Z,8.82
2022-09-12T08:14:08.447Z,9.73
2022-09-12T08:16:38.214Z,12.13
2022-09-12T08:19:06.077Z,10.05
2022-09-12T08:21:34.714Z,9.07
2022-09-12T08:24:06.160Z,10.82
2022-09-12T08:26:35.320Z,10.13
2022-09-12T08:29:04.235Z,12.63
2022-09-12T08:31:36.381Z,11.27
2022-09-12T08:34:07.081Z,10.75
2022-09-12T08:36:35.767Z,14.27
2022-09-12T08:39:07.302Z,11.32
2022-09-12T08:41:39.496Z,12.83
2022-09-12T08:44:49.008Z,8.27
2022-09-12T08:47:26.759Z,8.45
2022-09-12T08:50:03.752Z,10.20
2022-09-12T08:52:40.210Z,15.25
2022-09-12T08:55:26.520Z,10.27
2022-09-12T08:57:54.816Z,12.75
2022-09-12T09:00:22.930Z,11.90
2022-09-12T09:03:26.931Z,9.48
2022-09-12T09:06:02.739Z,9.27
2022-09-12T09:08:46.133Z,9.95
2022-09-12T09:11:36.634Z,10.07
2022-09-12T09:14:38.087Z,7.32
2022-09-12T09:17:12.048Z,9.25
2022-09-12T09:19:48.814Z,6.30
2022-09-12T09:22:31.135Z,6.22
2022-09-12T09:25:03.228Z,6.97
2022-09-12T09:27:48.043Z,8.63
2022-09-12T09:30:17.707Z,5.60
2022-09-12T09:32:49.646Z,8.20
2022-09-12T09:35:20.111Z,7.75
2022-09-12T09:38:00.232Z,9.90
2022-09-12T09:40:38.638Z,10.10
2022-09-12T09:43:19.796Z,7.43
2022-09-12T09:45:48.083Z,9.80
2022-09-12T09:48:21.290Z,6.70
2022-09-12T09:50:50.537Z,6.60
2022-09-12T09:53:34.881Z,9.98
2022-09-12T09:56:06.740Z,7.18
2022-09-12T09:58:37.205Z,9.43
2022-09-12T10:01:07.359Z,8.43
2022-09-12T10:03:39.988Z,8.15
2022-09-12T10:06:22.280Z,8.95
2022-09-12T10:11:22.370Z,9.43
2022-09-12T10:13:57.861Z,7.70
2022-09-12T10:16:37.468Z,7.25
2022-09-12T10:19:05.908Z,11.23
2022-09-12T10:21:35.901Z,7.38
2022-09-12T10:24:15.289Z,9.30
2022-09-12T10:26:46.385Z,6.45
2022-09-12T10:29:19.987Z,7.40
2022-09-12T10:31:52.222Z,9.30
2022-09-12T10:34:30.627Z,8.77
2022-09-12T10:37:08.028Z,7.80
2022-09-12T10:39:37.198Z,7.47
2022-09-12T10:42:06.586Z,9.10
2022-09-12T10:44:36.428Z,9.82
2022-09-12T10:47:23.903Z,8.93
2022-09-12T10:49:51.907Z,8.05
2022-09-12T10:52:26.319Z,7.55
2022-09-12T10:54:56.765Z,7.18
2022-09-12T10:57:48.068Z,6.90
2022-09-12T11:00:27.573Z,6.05
2022-09-12T11:03:17.488Z,5.35
2022-09-12T11:05:56.298Z,4.75
2022-09-12T11:08:52.525Z,5.68
2022-09-12T11:11:43.533Z,4.72
2022-09-12T11:14:31.495Z,7.32
2022-09-12T11:17:13.543Z,6.20
2022-09-12T11:19:57.040Z,7.90
2022-09-12T11:22:47.623Z,4.93
2022-09-12T11:25:29.894Z,5.10
2022-09-12T11:28:20.181Z,6.38
2022-09-12T11:31:01.016Z,5.45
2022-09-12T11:33:57.939Z,5.40
2022-09-12T11:36:38.510Z,5.10
2022-09-12T11:39:16.587Z,3.90
2022-09-12T11:42:19.743Z,3.70
2022-09-12T11:44:53.894Z,3.85
2022-09-12T11:47:25.186Z,5.93
2022-09-12T11:49:56.042Z,3.55
2022-09-12T11:52:25.219Z,3.50
2022-09-12T11:55:01.913Z,3.00
2022-09-12T11:57:38.351Z,3.58
2022-09-12T12:00:09.334Z,3.20
2022-09-12T12:02:43.626Z,3.40
2022-09-12T12:05:25.642Z,3.95
2022-09-12T12:07:55.089Z,3.45
2022-09-12T12:10:26.864Z,4.18
2022-09-12T12:12:58.336Z,5.47
2022-09-12T12:15:27.988Z,3.72
2022-09-12T12:18:09.921Z,3.58
2022-09-12T12:23:08.888Z,4.95
2022-09-12T12:25:42.950Z,4.47
2022-09-12T12:28:34.898Z,3.33
2022-09-12T12:35:11.689Z,5.93
2022-09-12T12:41:52.310Z,4.95
2022-09-12T12:48:24.111Z,3.78
2022-09-12T12:51:37.720Z,3.13
2022-09-12T13:01:24.972Z,2.90
2022-09-12T13:43:31.481Z,3.40
2022-09-12T13:45:59.340Z,9.45
2022-09-12T13:48:27.839Z,3.90
2022-09-12T13:51:02.103Z,2.75
2022-09-12T13:53:38.078Z,3.75
2022-09-12T13:56:08.064Z,2.70
2022-09-12T13:58:37.645Z,3.05
2022-09-12T14:01:08.627Z,3.65
2022-09-12T14:03:59.143Z,3.20
2022-09-12T14:06:33.555Z,3.20
2022-09-12T14:09:05.841Z,3.10
2022-09-12T14:11:35.981Z,2.88
2022-09-12T14:14:20.558Z,2.88
2022-09-12T14:16:53.782Z,3.33
2022-09-12T14:19:26.250Z,3.20
2022-09-12T14:21:59.702Z,2.88
2022-09-12T14:24:29.265Z,3.60
2022-09-12T14:26:59.030Z,4.03
2022-09-12T14:29:29.964Z,5.32
2022-09-12T14:32:07.078Z,3.65
2022-09-12T14:34:35.379Z,4.82
2022-09-12T14:37:10.754Z,4.15
2022-09-12T14:39:43.744Z,3.58
2022-09-12T14:42:17.899Z,3.50
2022-09-12T14:44:56.962Z,2.90
2022-09-12T14:47:27.643Z,3.10
2022-09-12T14:49:56.021Z,4.43
2022-09-12T14:52:29.668Z,3.20
2022-09-12T14:55:00.713Z,3.72
2022-09-12T14:57:38.963Z,5.57
2022-09-12T15:00:23.535Z,2.85
2022-09-12T15:02:57.839Z,3.13
2022-09-12T15:05:29.993Z,5.25
2022-09-12T15:08:03.910Z,6.75
2022-09-12T15:10:35.160Z,3.15
2022-09-12T15:13:15.333Z,4.97
2022-09-12T15:15:50.201Z,4.45
2022-09-12T15:18:30.110Z,2.85
2022-09-12T15:21:05.929Z,4.38
2022-09-12T15:23:40.485Z,6.18
2022-09-12T15:26:10.302Z,2.97
2022-09-12T15:28:40.762Z,4.68
2022-09-12T15:31:18.338Z,3.55
2022-09-12T15:33:50.645Z,7.47
2022-09-12T15:36:22.994Z,4.30
2022-09-12T15:38:58.220Z,4.10
2022-09-12T15:41:30.778Z,4.03
2022-09-12T15:44:01.677Z,2.95
2022-09-12T15:46:35.401Z,4.00
2022-09-12T15:49:03.570Z,4.00
2022-09-12T15:51:31.570Z,2.80
2022-09-12T15:54:03.896Z,3.10
2022-09-12T15:56:31.798Z,5.30
2022-09-12T15:59:02.435Z,5.28
2022-09-12T16:01:42.176Z,3.85
2022-09-12T16:04:23.697Z,3.72
2022-09-12T16:06:56.952Z,5.55
2022-09-12T16:09:27.546Z,3.10
2022-09-12T16:12:02.074Z,3.83
2022-09-12T16:14:45.029Z,4.72
2022-09-12T16:17:16.386Z,2.90
2022-09-12T16:19:49.087Z,3.10
2022-09-12T16:22:20.304Z,6.18
2022-09-12T16:24:48.215Z,8.60
2022-09-12T16:27:17.723Z,3.20
2022-09-12T16:29:49.775Z,3.60
2022-09-12T16:32:19.269Z,3.05
2022-09-12T16:34:52.300Z,4.60
2022-09-12T16:37:39.749Z,3.28
2022-09-12T16:40:22.986Z,3.83
2022-09-12T16:42:50.863Z,5.47
2022-09-12T16:45:24.428Z,3.38
2022-09-12T16:47:57.728Z,4.63
2022-09-12T16:50:33.088Z,3.17
2022-09-12T16:53:24.134Z,5.32
2022-09-12T16:55:52.734Z,3.72
2022-09-12T16:58:20.635Z,4.00
2022-09-12T17:00:49.693Z,3.30
2022-09-12T17:03:19.007Z,4.40
2022-09-12T17:05:46.888Z,3.90
2022-09-12T17:08:14.743Z,5.65
2022-09-12T17:10:44.880Z,5.80
2022-09-12T17:13:14.898Z,4.65
2022-09-12T17:15:42.849Z,3.80
2022-09-12T17:18:15.407Z,3.17
2022-09-12T17:20:44.831Z,4.13
2022-09-12T17:23:14.559Z,3.55
2022-09-12T17:25:42.550Z,3.25
2022-09-12T17:28:12.643Z,3.25
2022-09-12T17:30:45.164Z,3.47
2022-09-12T17:33:14.671Z,6.50
2022-09-12T17:35:43.322Z,3.15
2022-09-12T17:38:18.040Z,3.40
2022-09-12T17:40:59.136Z,5.80
2022-09-12T17:43:31.671Z,3.25
2022-09-12T17:45:59.681Z,6.00
2022-09-12T17:48:28.913Z,4.18
2022-09-12T17:50:59.452Z,8.20
2022-09-12T17:53:32.291Z,4.45
2022-09-12T17:56:06.268Z,6.18
2022-09-12T17:58:36.929Z,7.88
2022-09-12T18:01:26.775Z,5.97
2022-09-12T18:03:55.609Z,3.33
2022-09-12T18:06:23.583Z,6.07
2022-09-12T18:08:53.007Z,4.35
2022-09-12T18:11:21.006Z,5.18
2022-09-12T18:13:50.662Z,3.97
2022-09-12T18:16:20.021Z,6.47
2022-09-12T18:18:50.954Z,3.95
2022-09-12T18:21:21.252Z,5.68
2022-09-12T18:23:55.734Z,4.90
2022-09-12T18:26:25.057Z,4.28
2022-09-12T18:29:01.490Z,4.35
2022-09-12T18:31:31.981Z,4.00
2022-09-12T18:34:02.331Z,4.90
2022-09-12T18:36:37.109Z,7.28
2022-09-12T18:39:05.848Z,8.13
2022-09-12T18:41:35.536Z,9.80
2022-09-12T18:44:07.100Z,4.78
2022-09-12T18:46:36.578Z,4.47
2022-09-12T18:49:07.880Z,3.90
2022-09-12T18:51:40.131Z,4.37
2022-09-12T18:54:12.955Z,4.55
2022-09-12T18:56:45.955Z,5.68
2022-09-12T18:59:15.949Z,8.60
2022-09-12T19:01:44.530Z,6.22
2022-09-12T19:04:16.616Z,8.80
2022-09-12T19:06:48.156Z,6.65
2022-09-12T19:09:17.776Z,5.28
2022-09-12T19:11:50.024Z,5.43
2022-09-12T19:14:18.958Z,9.32
2022-09-12T19:16:49.554Z,7.32
2022-09-12T19:19:20.659Z,7.90
2022-09-12T19:21:48.538Z,8.63
2022-09-12T19:24:17.287Z,6.90
2022-09-12T19:26:47.053Z,5.22
2022-09-12T19:29:16.697Z,5.28
2022-09-12T19:31:45.024Z,4.88
2022-09-12T19:34:14.279Z,7.80
2022-09-12T19:36:47.012Z,10.25
2022-09-12T19:39:16.601Z,7.95
2022-09-12T19:41:44.510Z,6.65
2022-09-12T19:44:14.287Z,10.20
2022-09-12T19:46:42.240Z,5.30
2022-09-12T19:49:15.317Z,8.30
2022-09-12T19:51:44.075Z,7.40
2022-09-12T19:54:12.231Z,6.35
2022-09-12T19:56:40.164Z,5.55
2022-09-12T19:59:08.919Z,5.10
2022-09-12T20:01:38.491Z,6.80
2022-09-12T20:04:07.856Z,5.20
2022-09-12T20:06:36.726Z,7.13
2022-09-12T20:09:06.373Z,6.63
2022-09-12T20:11:38.448Z,5.65
2022-09-12T20:14:10.744Z,8.63
2022-09-12T20:16:39.953Z,4.82
2022-09-12T20:19:08.590Z,8.85
2022-09-12T20:21:38.693Z,9.02
2022-09-12T20:24:08.525Z,8.43
2022-09-12T20:26:36.801Z,4.80
2022-09-12T20:29:05.629Z,6.57
2022-09-12T20:31:34.378Z,4.70
2022-09-12T20:34:08.027Z,5.68
2022-09-12T20:36:35.925Z,6.10
2022-09-12T20:39:04.400Z,6.35
2022-09-12T20:41:37.281Z,5.75
2022-09-12T20:44:05.140Z,4.90
2022-09-12T20:46:33.611Z,5.38
2022-09-12T20:49:04.141Z,8.35
2022-09-12T20:51:32.299Z,6.43
2022-09-12T20:54:01.389Z,5.70
2022-09-12T20:56:31.532Z,7.22
2022-09-12T20:59:00.596Z,7.20
2022-09-12T21:01:31.990Z,5.68
2022-09-12T21:04:00.870Z,6.45
2022-09-12T21:06:32.707Z,5.70
2022-09-12T21:09:02.569Z,7.97
2022-09-12T21:11:30.725Z,5.40
2022-09-12T21:14:00.250Z,8.15
2022-09-12T21:16:29.892Z,5.97
2022-09-12T21:19:06.481Z,7.25
2022-09-12T21:21:57.144Z,6.43
2022-09-12T21:24:25.214Z,7.20
2022-09-12T21:27:02.166Z,8.02
2022-09-12T21:29:34.116Z,6.57
2022-09-12T21:32:02.318Z,5.75
2022-09-12T21:34:31.650Z,5.80
2022-09-12T21:37:04.649Z,4.13
2022-09-12T21:39:36.828Z,6.78
2022-09-12T21:42:05.165Z,4.55
2022-09-12T21:44:35.463Z,5.07
2022-09-12T21:47:03.335Z,5.80
2022-09-12T21:49:35.684Z,7.22
2022-09-12T21:52:05.426Z,5.47
2022-09-12T21:54:35.982Z,5.78
2022-09-12T21:57:14.406Z,9.77
2022-09-12T21:59:43.639Z,6.63
2022-09-12T22:02:16.059Z,6.55
2022-09-12T22:04:45.637Z,7.22
2022-09-12T22:07:17.584Z,9.50
2022-09-12T22:09:45.431Z,5.97
2022-09-12T22:12:18.361Z,8.90
2022-09-12T22:14:53.510Z,6.50
2022-09-12T22:17:21.543Z,5.85
2022-09-12T22:19:59.947Z,6.55
2022-09-12T22:22:52.010Z,6.85
2022-09-12T22:25:26.723Z,4.25
2022-09-12T22:27:56.595Z,9.07
2022-09-12T22:30:27.378Z,7.43
2022-09-12T22:32:56.644Z,14.98
2022-09-12T22:35:26.056Z,5.97
2022-09-12T22:37:55.430Z,11.10
2022-09-12T22:40:23.500Z,9.38
2022-09-12T22:43:00.188Z,7.05
2022-09-12T22:45:29.299Z,5.90
2022-09-12T22:48:00.755Z,4.82
2022-09-12T22:50:30.772Z,5.35
2022-09-12T22:53:02.381Z,6.55
2022-09-12T22:55:30.444Z,6.43
2022-09-12T22:58:02.620Z,7.82
2022-09-12T23:00:58.602Z,9.25
2022-09-12T23:03:26.721Z,6.38
2022-09-12T23:05:54.673Z,4.95
2022-09-12T23:08:23.935Z,5.18
2022-09-12T23:10:51.745Z,6.82
2022-09-12T23:41:04.435Z,6.57
2022-09-12T23:43:36.160Z,7.75
2022-09-12T23:46:05.150Z,7.30
2022-09-12T23:48:33.952Z,7.70
2022-09-12T23:51:02.245Z,6.65
2022-09-12T23:53:30.335Z,7.95
2022-09-12T23:56:03.079Z,7.93
2022-09-12T23:58:32.501Z,5.45
